sensor_id;sensor_type;location;lat;lon;timestamp;pressure;altitude;pressure_sealevel;temperature;humidity
21547;BME280;41275;51.912;4.388;2023-01-29T00:01:36;103015.41;;;11.98;44.91
21547;BME280;41275;51.912;4.388;2023-01-29T00:06:57;102999.56;;;11.90;44.96
21547;BME280;41275;51.912;4.388;2023-01-29T00:12:19;102992.44;;;11.90;45.01
21547;BME280;41275;51.912;4.388;2023-01-29T00:17:40;102993.63;;;11.88;45.02
21547;BME280;41275;51.912;4.388;2023-01-29T00:23:01;102977.72;;;11.88;44.52
21547;BME280;41275;51.912;4.388;2023-01-29T00:28:22;102977.78;;;11.79;44.20
21547;BME280;41275;51.912;4.388;2023-01-29T00:33:44;102977.66;;;11.73;43.87
21547;BME280;41275;51.912;4.388;2023-01-29T00:39:05;102985.22;;;11.84;43.68
21547;BME280;41275;51.912;4.388;2023-01-29T00:44:30;102970.63;;;11.80;43.46
21547;BME280;41275;51.912;4.388;2023-01-29T00:50:11;102952.50;;;11.69;43.49
21547;BME280;41275;51.912;4.388;2023-01-29T00:55:32;102964.97;;;11.68;43.18
21547;BME280;41275;51.912;4.388;2023-01-29T01:00:54;102965.59;;;11.70;43.26
21547;BME280;41275;51.912;4.388;2023-01-29T01:06:15;102945.56;;;11.68;43.07
21547;BME280;41275;51.912;4.388;2023-01-29T01:11:37;102946.75;;;11.65;43.16
21547;BME280;41275;51.912;4.388;2023-01-29T01:16:58;102947.38;;;11.52;43.39
21547;BME280;41275;51.912;4.388;2023-01-29T01:22:19;102948.91;;;11.47;43.84
21547;BME280;41275;51.912;4.388;2023-01-29T01:27:40;102951.81;;;11.37;43.83
21547;BME280;41275;51.912;4.388;2023-01-29T01:33:02;102959.44;;;11.40;44.38
21547;BME280;41275;51.912;4.388;2023-01-29T01:38:23;102966.19;;;11.43;43.99
21547;BME280;41275;51.912;4.388;2023-01-29T01:43:59;102962.91;;;11.41;44.45
21547;BME280;41275;51.912;4.388;2023-01-29T01:49:20;102963.44;;;11.36;44.56
21547;BME280;41275;51.912;4.388;2023-01-29T01:54:42;102972.56;;;11.34;44.63
21547;BME280;41275;51.912;4.388;2023-01-29T02:00:07;102967.19;;;11.42;44.99
21547;BME280;41275;51.912;4.388;2023-01-29T02:05:34;102968.94;;;11.49;44.96
21547;BME280;41275;51.912;4.388;2023-01-29T02:11:14;102960.91;;;11.58;45.08
21547;BME280;41275;51.912;4.388;2023-01-29T02:16:36;102953.03;;;11.49;44.89
21547;BME280;41275;51.912;4.388;2023-01-29T02:34:08;102947.25;;;11.46;44.92
21547;BME280;41275;51.912;4.388;2023-01-29T02:39:45;102952.09;;;11.42;45.02
21547;BME280;41275;51.912;4.388;2023-01-29T02:45:15;102955.75;;;11.41;45.13
21547;BME280;41275;51.912;4.388;2023-01-29T02:50:44;102947.00;;;11.41;44.81
21547;BME280;41275;51.912;4.388;2023-01-29T02:56:12;102940.47;;;11.43;44.82
21547;BME280;41275;51.912;4.388;2023-01-29T03:01:39;102946.78;;;11.42;44.69
21547;BME280;41275;51.912;4.388;2023-01-29T03:07:06;102942.78;;;11.46;44.98
21547;BME280;41275;51.912;4.388;2023-01-29T03:12:31;102941.97;;;11.46;44.43
21547;BME280;41275;51.912;4.388;2023-01-29T03:18:13;102934.19;;;11.44;44.57
21547;BME280;41275;51.912;4.388;2023-01-29T03:23:35;102937.66;;;11.45;44.39
21547;BME280;41275;51.912;4.388;2023-01-29T03:29:15;102934.38;;;11.43;44.61
21547;BME280;41275;51.912;4.388;2023-01-29T03:35:01;102932.72;;;11.42;44.40
21547;BME280;41275;51.912;4.388;2023-01-29T03:40:24;102915.19;;;11.41;44.38
21547;BME280;41275;51.912;4.388;2023-01-29T03:46:07;102925.13;;;11.39;44.73
21547;BME280;41275;51.912;4.388;2023-01-29T03:51:35;102920.84;;;11.38;44.34
21547;BME280;41275;51.912;4.388;2023-01-29T03:57:17;102915.41;;;11.31;44.51
21547;BME280;41275;51.912;4.388;2023-01-29T04:03:08;102906.28;;;11.34;44.59
21547;BME280;41275;51.912;4.388;2023-01-29T04:09:21;102892.38;;;11.31;44.69
21547;BME280;41275;51.912;4.388;2023-01-29T04:14:16;102892.56;;;11.30;44.69
21547;BME280;41275;51.912;4.388;2023-01-29T04:19:38;102895.88;;;11.32;44.86
21547;BME280;41275;51.912;4.388;2023-01-29T04:25:03;102893.22;;;11.32;44.85
21547;BME280;41275;51.912;4.388;2023-01-29T04:30:52;102879.59;;;11.35;44.76
21547;BME280;41275;51.912;4.388;2023-01-29T04:36:25;102871.00;;;11.33;44.43
21547;BME280;41275;51.912;4.388;2023-01-29T04:41:50;102876.88;;;11.28;44.86
21547;BME280;41275;51.912;4.388;2023-01-29T04:47:20;102858.31;;;11.28;44.75
21547;BME280;41275;51.912;4.388;2023-01-29T04:53:06;102856.47;;;11.29;44.81
21547;BME280;41275;51.912;4.388;2023-01-29T04:58:43;102850.72;;;11.25;44.83
21547;BME280;41275;51.912;4.388;2023-01-29T05:04:09;102844.41;;;11.26;44.67
21547;BME280;41275;51.912;4.388;2023-01-29T05:09:33;102844.13;;;11.21;45.02
21547;BME280;41275;51.912;4.388;2023-01-29T05:14:57;102843.31;;;11.21;44.61
21547;BME280;41275;51.912;4.388;2023-01-29T05:20:21;102830.22;;;11.19;44.65
21547;BME280;41275;51.912;4.388;2023-01-29T05:25:43;102832.50;;;11.22;44.75
21547;BME280;41275;51.912;4.388;2023-01-29T05:31:05;102824.56;;;11.22;45.26
21547;BME280;41275;51.912;4.388;2023-01-29T05:36:26;102822.66;;;11.31;45.18
21547;BME280;41275;51.912;4.388;2023-01-29T05:41:47;102824.13;;;11.34;44.94
21547;BME280;41275;51.912;4.388;2023-01-29T05:47:09;102818.16;;;11.31;44.86
21547;BME280;41275;51.912;4.388;2023-01-29T05:52:30;102814.69;;;11.31;44.99
21547;BME280;41275;51.912;4.388;2023-01-29T05:57:51;102812.69;;;11.33;45.18
21547;BME280;41275;51.912;4.388;2023-01-29T06:03:12;102824.56;;;11.37;44.72
21547;BME280;41275;51.912;4.388;2023-01-29T06:08:34;102819.38;;;11.44;44.91
21547;BME280;41275;51.912;4.388;2023-01-29T06:13:55;102816.28;;;11.40;44.62
21547;BME280;41275;51.912;4.388;2023-01-29T06:19:16;102820.09;;;11.38;44.66
21547;BME280;41275;51.912;4.388;2023-01-29T06:24:38;102807.28;;;11.26;44.81
21547;BME280;41275;51.912;4.388;2023-01-29T06:29:59;102807.94;;;11.28;44.98
21547;BME280;41275;51.912;4.388;2023-01-29T06:35:20;102794.59;;;11.37;44.95
21547;BME280;41275;51.912;4.388;2023-01-29T06:40:41;102786.44;;;11.38;44.88
21547;BME280;41275;51.912;4.388;2023-01-29T06:46:03;102792.78;;;11.37;44.65
21547;BME280;41275;51.912;4.388;2023-01-29T06:51:26;102794.97;;;11.34;44.43
21547;BME280;41275;51.912;4.388;2023-01-29T06:56:48;102785.44;;;11.39;44.49
21547;BME280;41275;51.912;4.388;2023-01-29T07:02:09;102787.72;;;11.42;44.64
21547;BME280;41275;51.912;4.388;2023-01-29T07:07:31;102782.78;;;11.39;44.45
21547;BME280;41275;51.912;4.388;2023-01-29T07:12:55;102778.97;;;11.42;44.71
21547;BME280;41275;51.912;4.388;2023-01-29T07:18:16;102788.38;;;11.44;44.37
21547;BME280;41275;51.912;4.388;2023-01-29T07:23:37;102793.84;;;11.43;44.25
21547;BME280;41275;51.912;4.388;2023-01-29T07:28:58;102794.03;;;11.41;44.54
21547;BME280;41275;51.912;4.388;2023-01-29T07:34:20;102792.22;;;11.42;44.59
21547;BME280;41275;51.912;4.388;2023-01-29T07:39:41;102778.50;;;11.38;44.35
21547;BME280;41275;51.912;4.388;2023-01-29T07:45:02;102788.38;;;11.44;44.45
21547;BME280;41275;51.912;4.388;2023-01-29T07:50:25;102785.63;;;11.38;44.66
21547;BME280;41275;51.912;4.388;2023-01-29T07:55:46;102774.66;;;11.41;44.83
21547;BME280;41275;51.912;4.388;2023-01-29T08:01:08;102772.63;;;11.43;44.83
21547;BME280;41275;51.912;4.388;2023-01-29T08:06:29;102775.13;;;11.44;44.68
21547;BME280;41275;51.912;4.388;2023-01-29T08:11:50;102774.31;;;11.44;44.90
21547;BME280;41275;51.912;4.388;2023-01-29T08:17:12;102767.06;;;11.38;44.82
21547;BME280;41275;51.912;4.388;2023-01-29T08:22:33;102763.06;;;11.42;44.67
21547;BME280;41275;51.912;4.388;2023-01-29T08:27:56;102771.38;;;11.39;44.82
21547;BME280;41275;51.912;4.388;2023-01-29T08:33:18;102759.03;;;11.46;45.08
21547;BME280;41275;51.912;4.388;2023-01-29T08:38:39;102745.97;;;11.44;45.08
21547;BME280;41275;51.912;4.388;2023-01-29T08:44:01;102748.97;;;11.41;45.20
21547;BME280;41275;51.912;4.388;2023-01-29T08:49:24;102750.50;;;11.50;45.10
21547;BME280;41275;51.912;4.388;2023-01-29T08:54:45;102742.28;;;11.60;45.20
21547;BME280;41275;51.912;4.388;2023-01-29T09:00:09;102729.94;;;11.67;45.24
21547;BME280;41275;51.912;4.388;2023-01-29T09:05:31;102728.34;;;11.73;45.04
21547;BME280;41275;51.912;4.388;2023-01-29T09:10:52;102732.47;;;11.75;44.95
21547;BME280;41275;51.912;4.388;2023-01-29T09:16:13;102736.53;;;11.93;44.91
21547;BME280;41275;51.912;4.388;2023-01-29T09:21:35;102719.88;;;11.99;44.60
21547;BME280;41275;51.912;4.388;2023-01-29T09:26:56;102729.97;;;11.89;44.45
21547;BME280;41275;51.912;4.388;2023-01-29T09:32:17;102736.34;;;11.94;44.62
21547;BME280;41275;51.912;4.388;2023-01-29T09:37:38;102733.06;;;11.92;44.63
21547;BME280;41275;51.912;4.388;2023-01-29T09:43:18;102733.59;;;12.02;44.40
21547;BME280;41275;51.912;4.388;2023-01-29T09:48:40;102734.41;;;12.03;44.71
21547;BME280;41275;51.912;4.388;2023-01-29T09:54:28;102735.94;;;11.91;44.35
21547;BME280;41275;51.912;4.388;2023-01-29T09:59:50;102722.91;;;11.81;44.57
21547;BME280;41275;51.912;4.388;2023-01-29T10:17:35;102698.84;;;11.83;44.96
21547;BME280;41275;51.912;4.388;2023-01-29T10:23:33;102691.41;;;11.71;44.95
21547;BME280;41275;51.912;4.388;2023-01-29T10:28:57;102678.16;;;11.71;45.15
21547;BME280;41275;51.912;4.388;2023-01-29T10:34:28;102693.53;;;11.83;45.33
21547;BME280;41275;51.912;4.388;2023-01-29T10:39:50;102689.13;;;11.83;45.52
21547;BME280;41275;51.912;4.388;2023-01-29T10:50:54;102683.31;;;11.79;45.40
21547;BME280;41275;51.912;4.388;2023-01-29T10:56:39;102676.91;;;11.89;45.41
21547;BME280;41275;51.912;4.388;2023-01-29T11:02:16;102670.47;;;11.98;45.62
21547;BME280;41275;51.912;4.388;2023-01-29T11:07:38;102647.22;;;12.00;45.39
21547;BME280;41275;51.912;4.388;2023-01-29T11:13:00;102638.81;;;11.96;45.81
21547;BME280;41275;51.912;4.388;2023-01-29T11:18:21;102641.34;;;12.04;45.85
21547;BME280;41275;51.912;4.388;2023-01-29T11:23:42;102630.09;;;12.02;45.54
21547;BME280;41275;51.912;4.388;2023-01-29T11:29:03;102634.53;;;11.95;45.43
21547;BME280;41275;51.912;4.388;2023-01-29T11:34:25;102628.22;;;11.96;45.60
21547;BME280;41275;51.912;4.388;2023-01-29T11:39:50;102626.22;;;12.05;45.52
21547;BME280;41275;51.912;4.388;2023-01-29T11:45:25;102621.50;;;12.00;45.41
21547;BME280;41275;51.912;4.388;2023-01-29T11:50:57;102603.94;;;11.99;45.38
21547;BME280;41275;51.912;4.388;2023-01-29T12:01:54;102581.94;;;12.06;45.38
21547;BME280;41275;51.912;4.388;2023-01-29T12:07:17;102586.88;;;12.09;45.42
21547;BME280;41275;51.912;4.388;2023-01-29T12:12:40;102579.56;;;12.17;45.49
21547;BME280;41275;51.912;4.388;2023-01-29T12:18:19;102553.66;;;12.19;45.29
21547;BME280;41275;51.912;4.388;2023-01-29T12:23:52;102541.41;;;12.18;45.11
21547;BME280;41275;51.912;4.388;2023-01-29T12:29:33;102524.78;;;12.44;45.02
21547;BME280;41275;51.912;4.388;2023-01-29T12:35:05;102519.41;;;12.72;45.02
21547;BME280;41275;51.912;4.388;2023-01-29T12:40:37;102508.72;;;12.59;45.04
21547;BME280;41275;51.912;4.388;2023-01-29T12:46:00;102521.78;;;12.54;44.56
21547;BME280;41275;51.912;4.388;2023-01-29T12:51:25;102491.91;;;12.39;44.47
21547;BME280;41275;51.912;4.388;2023-01-29T12:56:52;102481.03;;;12.34;44.98
21547;BME280;41275;51.912;4.388;2023-01-29T13:08:09;102448.59;;;12.38;44.81
21547;BME280;41275;51.912;4.388;2023-01-29T13:13:37;102428.59;;;12.49;44.86
21547;BME280;41275;51.912;4.388;2023-01-29T13:19:19;102408.19;;;12.49;44.66
21547;BME280;41275;51.912;4.388;2023-01-29T13:24:41;102400.06;;;12.58;44.76
21547;BME280;41275;51.912;4.388;2023-01-29T13:30:03;102397.44;;;12.77;44.87
21547;BME280;41275;51.912;4.388;2023-01-29T13:35:25;102381.06;;;12.81;44.34
21547;BME280;41275;51.912;4.388;2023-01-29T13:41:12;102380.47;;;12.78;44.42
21547;BME280;41275;51.912;4.388;2023-01-29T13:46:39;102355.31;;;12.68;44.47
21547;BME280;41275;51.912;4.388;2023-01-29T14:13:55;102337.94;;;12.65;45.07
21547;BME280;41275;51.912;4.388;2023-01-29T14:19:17;102346.53;;;12.54;45.18
21547;BME280;41275;51.912;4.388;2023-01-29T14:24:41;102333.22;;;12.34;45.56
21547;BME280;41275;51.912;4.388;2023-01-29T14:30:06;102326.84;;;12.28;46.10
21547;BME280;41275;51.912;4.388;2023-01-29T14:35:31;102321.75;;;12.34;45.97
21547;BME280;41275;51.912;4.388;2023-01-29T14:41:14;102328.09;;;12.33;46.27
21547;BME280;41275;51.912;4.388;2023-01-29T14:46:40;102315.22;;;12.29;46.13
21547;BME280;41275;51.912;4.388;2023-01-29T14:52:02;102316.84;;;12.24;46.54
21547;BME280;41275;51.912;4.388;2023-01-29T14:57:24;102312.34;;;12.24;46.19
21547;BME280;41275;51.912;4.388;2023-01-29T15:02:48;102298.47;;;12.22;46.63
21547;BME280;41275;51.912;4.388;2023-01-29T15:08:17;102307.66;;;12.20;46.63
21547;BME280;41275;51.912;4.388;2023-01-29T15:19:20;102294.13;;;12.01;47.26
21547;BME280;41275;51.912;4.388;2023-01-29T15:24:46;102267.56;;;11.88;48.02
21547;BME280;41275;51.912;4.388;2023-01-29T15:30:14;102274.09;;;11.92;48.17
21547;BME280;41275;51.912;4.388;2023-01-29T15:35:38;102291.84;;;11.92;48.72
21547;BME280;41275;51.912;4.388;2023-01-29T15:41:02;102272.66;;;11.90;48.44
21547;BME280;41275;51.912;4.388;2023-01-29T15:46:33;102273.28;;;11.98;48.87
21547;BME280;41275;51.912;4.388;2023-01-29T15:51:57;102272.06;;;11.94;48.90
21547;BME280;41275;51.912;4.388;2023-01-29T15:57:22;102269.59;;;11.93;48.45
21547;BME280;41275;51.912;4.388;2023-01-29T16:02:45;102272.69;;;11.96;48.66
21547;BME280;41275;51.912;4.388;2023-01-29T16:08:11;102262.69;;;12.05;48.37
21547;BME280;41275;51.912;4.388;2023-01-29T16:13:35;102267.19;;;12.04;48.36
21547;BME280;41275;51.912;4.388;2023-01-29T16:18:59;102261.28;;;12.09;48.31
21547;BME280;41275;51.912;4.388;2023-01-29T16:24:21;102264.31;;;12.06;48.41
21547;BME280;41275;51.912;4.388;2023-01-29T16:29:45;102270.69;;;12.12;48.30
21547;BME280;41275;51.912;4.388;2023-01-29T16:35:13;102248.22;;;12.08;48.00
21547;BME280;41275;51.912;4.388;2023-01-29T16:40:36;102247.81;;;12.04;47.81
21547;BME280;41275;51.912;4.388;2023-01-29T16:46:02;102249.81;;;12.02;48.19
21547;BME280;41275;51.912;4.388;2023-01-29T16:51:36;102236.56;;;11.95;48.10
21547;BME280;41275;51.912;4.388;2023-01-29T16:56:58;102235.13;;;11.93;48.23
21547;BME280;41275;51.912;4.388;2023-01-29T17:02:31;102235.31;;;11.85;47.88
21547;BME280;41275;51.912;4.388;2023-01-29T17:07:55;102234.84;;;11.81;48.45
21547;BME280;41275;51.912;4.388;2023-01-29T17:13:22;102237.56;;;11.88;48.18
21547;BME280;41275;51.912;4.388;2023-01-29T17:18:46;102227.13;;;11.86;48.26
21547;BME280;41275;51.912;4.388;2023-01-29T17:24:07;102210.16;;;11.80;48.44
21547;BME280;41275;51.912;4.388;2023-01-29T17:29:30;102195.47;;;11.78;48.69
21547;BME280;41275;51.912;4.388;2023-01-29T17:34:51;102201.41;;;11.80;48.70
21547;BME280;41275;51.912;4.388;2023-01-29T17:40:32;102211.19;;;11.79;49.00
21547;BME280;41275;51.912;4.388;2023-01-29T17:45:55;102177.72;;;11.78;49.40
21547;BME280;41275;51.912;4.388;2023-01-29T17:51:16;102168.53;;;11.81;49.07
21547;BME280;41275;51.912;4.388;2023-01-29T17:56:38;102165.69;;;11.83;49.49
21547;BME280;41275;51.912;4.388;2023-01-29T18:01:59;102155.28;;;11.81;49.51
21547;BME280;41275;51.912;4.388;2023-01-29T18:07:20;102169.22;;;11.83;49.74
21547;BME280;41275;51.912;4.388;2023-01-29T18:12:42;102157.56;;;11.84;50.02
21547;BME280;41275;51.912;4.388;2023-01-29T18:18:04;102145.34;;;11.83;49.78
21547;BME280;41275;51.912;4.388;2023-01-29T18:23:25;102140.03;;;11.90;49.87
21547;BME280;41275;51.912;4.388;2023-01-29T18:28:46;102133.31;;;11.87;50.34
21547;BME280;41275;51.912;4.388;2023-01-29T18:34:07;102122.88;;;11.92;50.26
21547;BME280;41275;51.912;4.388;2023-01-29T18:39:29;102113.09;;;11.93;50.28
21547;BME280;41275;51.912;4.388;2023-01-29T18:44:50;102107.19;;;11.91;50.05
21547;BME280;41275;51.912;4.388;2023-01-29T18:50:11;102093.28;;;11.89;50.72
21547;BME280;41275;51.912;4.388;2023-01-29T18:55:32;102083.69;;;11.94;50.67
21547;BME280;41275;51.912;4.388;2023-01-29T19:00:53;102079.81;;;11.97;50.56
21547;BME280;41275;51.912;4.388;2023-01-29T19:06:14;102064.53;;;11.99;50.78
21547;BME280;41275;51.912;4.388;2023-01-29T19:11:36;102064.09;;;12.02;50.81
21547;BME280;41275;51.912;4.388;2023-01-29T19:16:57;102049.63;;;12.11;51.08
21547;BME280;41275;51.912;4.388;2023-01-29T19:22:20;102041.22;;;12.21;51.17
21547;BME280;41275;51.912;4.388;2023-01-29T19:27:41;102042.25;;;12.26;51.09
21547;BME280;41275;51.912;4.388;2023-01-29T19:33:03;102039.38;;;12.35;51.29
21547;BME280;41275;51.912;4.388;2023-01-29T19:38:24;102044.22;;;12.44;51.46
21547;BME280;41275;51.912;4.388;2023-01-29T19:43:45;102050.56;;;12.50;51.61
21547;BME280;41275;51.912;4.388;2023-01-29T19:49:08;102051.56;;;12.49;51.53
21547;BME280;41275;51.912;4.388;2023-01-29T19:54:30;102042.19;;;12.46;51.52
21547;BME280;41275;51.912;4.388;2023-01-29T19:59:51;102059.97;;;12.39;51.47
21547;BME280;41275;51.912;4.388;2023-01-29T20:05:13;102047.91;;;12.37;51.66
21547;BME280;41275;51.912;4.388;2023-01-29T20:10:37;102031.00;;;12.31;51.82
21547;BME280;41275;51.912;4.388;2023-01-29T20:15:59;102052.19;;;12.38;52.14
21547;BME280;41275;51.912;4.388;2023-01-29T20:21:25;102008.09;;;12.37;52.01
21547;BME280;41275;51.912;4.388;2023-01-29T20:26:46;102014.44;;;12.36;52.15
21547;BME280;41275;51.912;4.388;2023-01-29T20:32:07;102030.75;;;12.46;52.09
21547;BME280;41275;51.912;4.388;2023-01-29T20:37:28;102025.41;;;12.59;52.27
21547;BME280;41275;51.912;4.388;2023-01-29T20:42:50;102008.81;;;12.64;52.70
21547;BME280;41275;51.912;4.388;2023-01-29T20:48:11;102014.31;;;12.69;52.52
21547;BME280;41275;51.912;4.388;2023-01-29T20:53:32;102017.97;;;12.74;52.92
21547;BME280;41275;51.912;4.388;2023-01-29T20:58:54;101988.09;;;12.86;52.89
21547;BME280;41275;51.912;4.388;2023-01-29T21:04:15;101976.00;;;12.90;52.81
21547;BME280;41275;51.912;4.388;2023-01-29T21:09:36;101985.50;;;12.72;53.19
21547;BME280;41275;51.912;4.388;2023-01-29T21:14:57;102003.00;;;12.87;53.14
21547;BME280;41275;51.912;4.388;2023-01-29T21:20:19;102021.75;;;12.92;52.94
21547;BME280;41275;51.912;4.388;2023-01-29T21:25:40;102022.31;;;13.00;53.28
21547;BME280;41275;51.912;4.388;2023-01-29T21:31:07;102013.75;;;13.05;53.15
21547;BME280;41275;51.912;4.388;2023-01-29T21:36:31;101987.91;;;13.12;53.10
21547;BME280;41275;51.912;4.388;2023-01-29T21:41:52;101942.28;;;13.22;53.39
21547;BME280;41275;51.912;4.388;2023-01-29T21:47:32;101901.72;;;13.33;53.81
21547;BME280;41275;51.912;4.388;2023-01-29T21:52:55;101860.91;;;13.46;53.74
21547;BME280;41275;51.912;4.388;2023-01-29T21:58:16;101875.97;;;13.52;54.06
21547;BME280;41275;51.912;4.388;2023-01-29T22:03:40;101908.25;;;13.56;53.85
21547;BME280;41275;51.912;4.388;2023-01-29T22:09:01;101913.66;;;13.67;54.04
21547;BME280;41275;51.912;4.388;2023-01-29T22:14:22;101902.38;;;13.72;54.22
21547;BME280;41275;51.912;4.388;2023-01-29T22:19:43;101910.78;;;13.69;54.35
21547;BME280;41275;51.912;4.388;2023-01-29T22:25:05;101936.28;;;13.77;54.58
21547;BME280;41275;51.912;4.388;2023-01-29T22:30:26;101923.50;;;13.85;54.42
21547;BME280;41275;51.912;4.388;2023-01-29T22:35:52;101885.81;;;13.88;54.39
21547;BME280;41275;51.912;4.388;2023-01-29T22:41:14;101878.34;;;13.97;54.74
21547;BME280;41275;51.912;4.388;2023-01-29T22:46:35;101861.84;;;14.07;54.57
21547;BME280;41275;51.912;4.388;2023-01-29T22:51:56;101871.38;;;14.14;54.45
21547;BME280;41275;51.912;4.388;2023-01-29T22:57:32;101873.59;;;14.17;54.18
21547;BME280;41275;51.912;4.388;2023-01-29T23:02:53;101859.03;;;14.20;54.22
21547;BME280;41275;51.912;4.388;2023-01-29T23:08:15;101854.50;;;14.20;53.99
21547;BME280;41275;51.912;4.388;2023-01-29T23:13:36;101830.78;;;14.19;53.80
21547;BME280;41275;51.912;4.388;2023-01-29T23:18:57;101812.47;;;14.22;53.93
21547;BME280;41275;51.912;4.388;2023-01-29T23:24:18;101818.28;;;14.19;54.00
21547;BME280;41275;51.912;4.388;2023-01-29T23:29:44;101818.41;;;14.24;53.69
21547;BME280;41275;51.912;4.388;2023-01-29T23:35:06;101818.78;;;14.28;53.76
21547;BME280;41275;51.912;4.388;2023-01-29T23:40:27;101813.00;;;14.31;53.67
21547;BME280;41275;51.912;4.388;2023-01-29T23:45:48;101806.19;;;14.35;53.57
21547;BME280;41275;51.912;4.388;2023-01-29T23:51:09;101792.19;;;14.40;53.75
21547;BME280;41275;51.912;4.388;2023-01-29T23:56:31;101795.88;;;14.39;53.67
